createdAt,value
2017-04-13T00:00:26.946Z,11.80
2017-04-13T00:01:25.442Z,11.80
2017-04-13T00:02:24.533Z,11.80
2017-04-13T00:03:23.593Z,11.80
2017-04-13T00:04:21.928Z,11.80
2017-04-13T00:05:20.236Z,11.80
2017-04-13T00:06:18.645Z,11.80
2017-04-13T00:07:17.721Z,11.80
2017-04-13T00:08:15.996Z,11.80
2017-04-13T00:09:14.445Z,11.80
2017-04-13T00:10:13.778Z,11.80
2017-04-13T00:11:12.129Z,11.80
2017-04-13T00:12:10.498Z,11.80
2017-04-13T00:13:09.640Z,11.80
2017-04-13T00:14:08.718Z,11.80
2017-04-13T00:15:07.129Z,11.80
2017-04-13T00:16:05.497Z,11.80
2017-04-13T00:17:03.833Z,11.80
2017-04-13T00:18:02.131Z,11.80
2017-04-13T00:19:00.486Z,11.80
2017-04-13T00:19:58.922Z,11.70
2017-04-13T00:20:57.297Z,11.80
2017-04-13T00:21:55.706Z,11.70
2017-04-13T00:22:53.354Z,11.70
2017-04-13T00:23:51.712Z,11.70
2017-04-13T00:24:49.993Z,11.70
2017-04-13T00:25:48.309Z,11.70
2017-04-13T00:26:46.682Z,11.70
2017-04-13T00:27:45.058Z,11.70
2017-04-13T00:28:43.389Z,11.70
2017-04-13T00:29:41.683Z,11.70
2017-04-13T00:30:39.997Z,11.70
2017-04-13T00:31:38.364Z,11.70
2017-04-13T00:32:36.714Z,11.70
2017-04-13T00:33:35.078Z,11.70
2017-04-13T00:34:33.398Z,11.70
2017-04-13T00:35:31.734Z,11.70
2017-04-13T00:36:30.054Z,11.70
2017-04-13T00:37:28.348Z,11.70
2017-04-13T00:38:26.698Z,11.70
2017-04-13T00:39:25.023Z,11.70
2017-04-13T00:40:23.357Z,11.70
2017-04-13T00:41:21.635Z,11.70
2017-04-13T00:42:20.000Z,11.70
2017-04-13T00:43:18.268Z,11.70
2017-04-13T00:44:16.590Z,11.70
2017-04-13T00:45:14.895Z,11.70
2017-04-13T00:46:13.221Z,11.70
2017-04-13T00:47:11.530Z,11.70
2017-04-13T00:48:10.574Z,11.60
2017-04-13T00:49:08.886Z,11.70
2017-04-13T00:50:07.238Z,11.70
2017-04-13T00:51:05.642Z,11.70
2017-04-13T00:52:03.966Z,11.70
2017-04-13T00:53:03.042Z,11.60
2017-04-13T00:54:01.357Z,11.70
2017-04-13T00:54:59.674Z,11.60
2017-04-13T00:55:57.973Z,11.70
2017-04-13T00:56:56.330Z,11.60
2017-04-13T00:57:54.857Z,11.60
2017-04-13T00:58:53.199Z,11.70
2017-04-13T00:59:51.510Z,11.60
2017-04-13T01:00:49.849Z,11.60
2017-04-13T01:01:48.199Z,11.60
2017-04-13T01:02:46.564Z,11.60
2017-04-13T01:03:45.655Z,11.60
2017-04-13T01:04:44.716Z,11.60
2017-04-13T01:05:43.020Z,11.60
2017-04-13T01:06:41.337Z,11.60
2017-04-13T01:07:40.477Z,11.60
2017-04-13T01:08:38.841Z,11.60
2017-04-13T01:09:37.186Z,11.60
2017-04-13T01:10:36.214Z,11.60
2017-04-13T01:11:34.552Z,11.60
2017-04-13T01:12:32.874Z,11.60
2017-04-13T01:13:31.950Z,11.60
2017-04-13T01:14:30.353Z,11.60
2017-04-13T01:15:28.725Z,11.60
2017-04-13T01:16:27.040Z,11.60
2017-04-13T01:17:25.390Z,11.60
2017-04-13T01:18:23.693Z,11.60
2017-04-13T01:19:22.047Z,11.60
2017-04-13T01:20:20.639Z,11.60
2017-04-13T01:21:19.762Z,11.50
2017-04-13T01:22:18.153Z,11.60
2017-04-13T01:23:16.489Z,11.60
2017-04-13T01:24:14.973Z,11.60
2017-04-13T01:25:13.382Z,11.60
2017-04-13T01:26:11.786Z,11.60
2017-04-13T01:27:10.111Z,11.60
2017-04-13T01:28:08.460Z,11.60
2017-04-13T01:29:06.814Z,11.60
2017-04-13T01:30:05.178Z,11.60
2017-04-13T01:31:03.514Z,11.50
2017-04-13T01:32:01.906Z,11.50
2017-04-13T01:33:00.694Z,11.60
2017-04-13T01:33:59.058Z,11.50
2017-04-13T01:34:57.429Z,11.50
2017-04-13T01:35:56.254Z,11.50
2017-04-13T01:36:54.619Z,11.50
2017-04-13T01:37:52.953Z,11.50
2017-04-13T01:38:51.262Z,11.50
2017-04-13T01:39:50.386Z,11.50
2017-04-13T01:40:48.718Z,11.50
2017-04-13T01:41:47.033Z,11.50
2017-04-13T01:42:45.764Z,11.50
2017-04-13T01:43:44.128Z,11.50
2017-04-13T01:44:42.470Z,11.50
2017-04-13T01:45:40.802Z,11.50
2017-04-13T01:46:39.109Z,11.50
2017-04-13T01:47:37.465Z,11.50
2017-04-13T01:48:35.797Z,11.50
2017-04-13T01:49:34.160Z,11.50
2017-04-13T01:50:32.568Z,11.50
2017-04-13T01:51:30.888Z,11.50
2017-04-13T01:52:29.178Z,11.50
2017-04-13T01:53:28.245Z,11.50
2017-04-13T01:54:26.554Z,11.50
2017-04-13T01:55:24.885Z,11.50
2017-04-13T01:56:23.190Z,11.50
2017-04-13T01:57:21.493Z,11.50
2017-04-13T01:58:19.786Z,11.50
2017-04-13T01:59:18.090Z,11.50
2017-04-13T02:00:16.410Z,11.50
2017-04-13T02:01:14.757Z,11.50
2017-04-13T02:02:13.113Z,11.50
2017-04-13T02:03:11.391Z,11.50
2017-04-13T02:04:10.478Z,11.50
2017-04-13T02:05:08.802Z,11.50
2017-04-13T02:06:07.102Z,11.50
2017-04-13T02:07:05.426Z,11.50
2017-04-13T02:08:03.711Z,11.50
2017-04-13T02:09:02.037Z,11.50
2017-04-13T02:10:00.329Z,11.50
2017-04-13T02:10:58.646Z,11.50
2017-04-13T02:11:57.678Z,11.50
2017-04-13T02:12:56.273Z,11.50
2017-04-13T02:13:54.630Z,11.50
2017-04-13T02:14:52.914Z,11.50
2017-04-13T02:15:51.310Z,11.50
2017-04-13T02:16:50.392Z,11.50
2017-04-13T02:17:48.757Z,11.50
2017-04-13T02:18:47.071Z,11.50
2017-04-13T02:19:45.385Z,11.50
2017-04-13T02:20:43.709Z,11.50
2017-04-13T02:21:42.034Z,11.40
2017-04-13T02:22:40.346Z,11.40
2017-04-13T02:23:38.793Z,11.40
2017-04-13T02:24:37.137Z,11.40
2017-04-13T02:25:35.421Z,11.40
2017-04-13T02:26:33.728Z,11.40
2017-04-13T02:27:32.025Z,11.40
2017-04-13T02:28:30.323Z,11.30
2017-04-13T02:29:28.642Z,11.30
2017-04-13T02:30:26.955Z,11.40
2017-04-13T02:31:25.254Z,11.30
2017-04-13T02:32:23.550Z,11.30
2017-04-13T02:33:22.057Z,11.30
2017-04-13T02:34:20.337Z,11.30
2017-04-13T02:35:18.635Z,11.30
2017-04-13T02:36:16.952Z,11.30
2017-04-13T02:37:15.246Z,11.30
2017-04-13T02:38:13.531Z,11.30
2017-04-13T02:39:11.817Z,11.30
2017-04-13T02:40:10.123Z,11.30
2017-04-13T02:41:08.695Z,11.30
2017-04-13T02:42:07.170Z,11.20
2017-04-13T02:43:05.541Z,11.20
2017-04-13T02:44:03.834Z,11.20
2017-04-13T02:45:02.145Z,11.20
2017-04-13T02:46:01.098Z,11.20
2017-04-13T02:46:59.441Z,11.20
2017-04-13T02:47:57.785Z,11.20
2017-04-13T02:48:56.148Z,11.10
2017-04-13T02:49:54.413Z,11.10
2017-04-13T02:50:52.688Z,11.10
2017-04-13T02:51:50.965Z,11.10
2017-04-13T02:52:49.225Z,11.10
2017-04-13T02:53:48.616Z,11.10
2017-04-13T02:54:46.987Z,11.10
2017-04-13T02:55:46.109Z,11.10
2017-04-13T02:56:44.507Z,11.10
2017-04-13T02:57:42.896Z,11.10
2017-04-13T02:58:41.261Z,11.10
2017-04-13T02:59:39.654Z,11.10
2017-04-13T03:00:38.057Z,11.10
2017-04-13T03:01:36.531Z,11.10
2017-04-13T03:02:34.951Z,11.10
2017-04-13T03:03:33.363Z,11.10
2017-04-13T03:04:31.786Z,11.10
2017-04-13T03:05:30.176Z,11.10
2017-04-13T03:06:28.534Z,11.00
2017-04-13T03:07:26.883Z,11.00
2017-04-13T03:08:26.294Z,11.00
2017-04-13T03:09:24.709Z,11.00
2017-04-13T03:10:23.038Z,11.00
2017-04-13T03:11:21.451Z,11.00
2017-04-13T03:12:25.534Z,11.00
2017-04-13T03:13:24.363Z,11.00
2017-04-13T03:14:22.738Z,11.00
2017-04-13T03:15:21.885Z,10.90
2017-04-13T03:16:21.584Z,10.90
2017-04-13T03:17:19.985Z,10.90
2017-04-13T03:18:19.075Z,10.90
2017-04-13T03:19:17.470Z,11.00
2017-04-13T03:20:15.911Z,10.90
2017-04-13T03:21:14.298Z,10.90
2017-04-13T03:22:12.771Z,10.90
2017-04-13T03:23:11.141Z,10.90
2017-04-13T03:24:09.478Z,10.90
2017-04-13T03:25:08.599Z,10.90
2017-04-13T03:26:06.948Z,10.90
2017-04-13T03:27:05.405Z,10.90
2017-04-13T03:28:03.790Z,10.90
2017-04-13T03:29:02.136Z,10.90
2017-04-13T03:30:00.566Z,10.90
2017-04-13T03:30:58.975Z,10.80
2017-04-13T03:31:57.394Z,10.80
2017-04-13T03:32:56.529Z,10.80
2017-04-13T03:33:54.974Z,10.80
2017-04-13T03:34:54.020Z,10.80
2017-04-13T03:35:53.190Z,10.70
2017-04-13T03:36:51.496Z,10.80
2017-04-13T03:37:49.942Z,10.80
2017-04-13T03:38:48.421Z,10.70
2017-04-13T03:39:52.976Z,10.70
2017-04-13T03:40:51.346Z,10.80
2017-04-13T03:41:49.715Z,10.70
2017-04-13T03:42:48.142Z,10.70
2017-04-13T03:43:46.528Z,10.70
2017-04-13T03:44:44.939Z,10.70
2017-04-13T03:45:43.375Z,10.70
2017-04-13T03:46:42.489Z,10.60
2017-04-13T03:47:40.886Z,10.70
2017-04-13T03:48:39.270Z,10.70
2017-04-13T03:49:37.676Z,10.70
2017-04-13T03:50:36.038Z,10.70
2017-04-13T03:51:34.401Z,10.70
2017-04-13T03:52:32.714Z,10.70
2017-04-13T03:53:31.173Z,10.70
2017-04-13T03:54:30.269Z,10.80
2017-04-13T03:55:28.568Z,10.80
2017-04-13T03:56:26.897Z,10.80
2017-04-13T03:57:25.263Z,10.80
2017-04-13T03:58:24.412Z,10.90
2017-04-13T03:59:22.810Z,10.90
2017-04-13T04:00:21.239Z,10.90
2017-04-13T04:01:19.943Z,10.90
2017-04-13T04:02:18.410Z,11.00
2017-04-13T04:03:16.782Z,11.00
2017-04-13T04:04:15.147Z,11.00
2017-04-13T04:05:13.621Z,11.00
2017-04-13T04:06:12.008Z,11.00
2017-04-13T04:07:10.393Z,11.10
2017-04-13T04:08:08.806Z,11.10
2017-04-13T04:09:07.228Z,11.10
2017-04-13T04:10:05.639Z,11.10
2017-04-13T04:11:04.091Z,11.10
2017-04-13T04:12:02.531Z,11.10
2017-04-13T04:13:00.954Z,11.10
2017-04-13T04:14:00.406Z,11.20
2017-04-13T04:14:58.802Z,11.20
2017-04-13T04:15:57.218Z,11.20
2017-04-13T04:16:56.534Z,11.20
2017-04-13T04:17:54.902Z,11.20
2017-04-13T04:18:53.317Z,11.20
2017-04-13T04:19:52.398Z,11.20
2017-04-13T04:20:50.830Z,11.20
2017-04-13T04:21:49.203Z,11.20
2017-04-13T04:22:47.626Z,11.20
2017-04-13T04:23:46.743Z,11.20
2017-04-13T04:24:45.153Z,11.20
2017-04-13T04:25:43.570Z,11.20
2017-04-13T04:26:42.026Z,11.20
2017-04-13T04:27:40.434Z,11.20
2017-04-13T04:28:38.854Z,11.20
2017-04-13T04:29:37.250Z,11.20
2017-04-13T04:30:35.731Z,11.20
2017-04-13T04:31:34.102Z,11.20
2017-04-13T04:32:32.571Z,11.20
2017-04-13T04:33:31.105Z,11.20
2017-04-13T04:34:30.190Z,11.20
2017-04-13T04:35:28.494Z,11.20
2017-04-13T04:36:26.886Z,11.20
2017-04-13T04:37:25.276Z,11.20
2017-04-13T04:38:23.723Z,11.20
2017-04-13T04:39:22.142Z,11.20
2017-04-13T04:40:20.570Z,11.20
2017-04-13T04:41:18.939Z,11.20
2017-04-13T04:42:17.402Z,11.20
2017-04-13T04:43:15.773Z,11.20
2017-04-13T04:44:14.183Z,11.20
2017-04-13T04:45:12.907Z,11.20
2017-04-13T04:46:11.587Z,11.20
2017-04-13T04:47:10.874Z,11.20
2017-04-13T04:48:15.174Z,11.20
2017-04-13T04:49:13.546Z,11.20
2017-04-13T04:50:12.066Z,11.20
2017-04-13T04:51:10.440Z,11.20
2017-04-13T04:52:08.898Z,11.20
2017-04-13T04:53:07.322Z,11.20
2017-04-13T04:54:05.730Z,11.20
2017-04-13T04:55:05.264Z,11.20
2017-04-13T04:56:03.724Z,11.20
2017-04-13T04:57:02.149Z,11.20
2017-04-13T04:58:00.534Z,11.20
2017-04-13T04:58:58.954Z,11.20
2017-04-13T04:59:57.342Z,11.30
2017-04-13T05:00:55.814Z,11.30
2017-04-13T05:01:54.169Z,11.30
2017-04-13T05:02:52.577Z,11.30
2017-04-13T05:03:50.950Z,11.30
2017-04-13T05:04:49.366Z,11.30
2017-04-13T05:05:47.744Z,11.30
2017-04-13T05:06:46.175Z,11.30
2017-04-13T05:07:44.632Z,11.30
2017-04-13T05:08:43.067Z,11.30
2017-04-13T05:09:41.581Z,11.30
2017-04-13T05:10:40.029Z,11.30
2017-04-13T05:11:39.150Z,11.30
2017-04-13T05:12:37.603Z,11.30
2017-04-13T05:13:36.079Z,11.30
2017-04-13T05:14:34.561Z,11.40
2017-04-13T05:15:33.008Z,11.40
2017-04-13T05:16:31.404Z,11.40
2017-04-13T05:17:30.581Z,11.40
2017-04-13T05:18:29.047Z,11.40
2017-04-13T05:19:27.431Z,11.40
2017-04-13T05:20:25.904Z,11.40
2017-04-13T05:21:24.357Z,11.40
2017-04-13T05:22:22.802Z,11.40
2017-04-13T05:23:21.210Z,11.40
2017-04-13T05:24:19.695Z,11.40
2017-04-13T05:25:18.130Z,11.40
2017-04-13T05:26:17.270Z,11.40
2017-04-13T05:27:15.670Z,11.40
2017-04-13T05:28:14.086Z,11.40
2017-04-13T05:29:12.546Z,11.40
2017-04-13T05:30:11.014Z,11.40
2017-04-13T05:31:09.469Z,11.40
2017-04-13T05:32:07.873Z,11.40
2017-04-13T05:33:06.280Z,11.40
2017-04-13T05:34:04.817Z,11.40
2017-04-13T05:35:03.918Z,11.40
2017-04-13T05:36:02.435Z,11.40
2017-04-13T05:37:00.783Z,11.40
2017-04-13T05:37:59.944Z,11.40
2017-04-13T05:38:58.371Z,11.40
2017-04-13T05:39:56.782Z,11.40
2017-04-13T05:40:55.157Z,11.40
2017-04-13T05:41:53.590Z,11.40
2017-04-13T05:42:52.655Z,11.40
2017-04-13T05:43:51.050Z,11.40
2017-04-13T05:44:49.404Z,11.40
2017-04-13T05:45:48.034Z,11.40
2017-04-13T05:46:47.241Z,11.40
2017-04-13T05:47:45.963Z,11.40
2017-04-13T05:48:44.471Z,11.40
2017-04-13T05:49:43.871Z,11.40
2017-04-13T05:50:42.246Z,11.50
2017-04-13T05:51:41.643Z,11.40
2017-04-13T05:52:40.402Z,11.50
2017-04-13T05:53:38.863Z,11.50
2017-04-13T05:54:37.330Z,11.50
2017-04-13T05:55:35.762Z,11.50
2017-04-13T05:56:34.194Z,11.50
2017-04-13T05:57:32.574Z,11.60
2017-04-13T05:58:30.962Z,11.60
2017-04-13T05:59:30.170Z,11.60
2017-04-13T06:00:28.533Z,11.70
2017-04-13T06:01:26.897Z,11.70
2017-04-13T06:02:26.090Z,11.70
2017-04-13T06:03:24.450Z,11.80
2017-04-13T06:04:22.846Z,11.80
2017-04-13T06:05:21.320Z,11.80
2017-04-13T06:06:19.701Z,11.80
2017-04-13T06:07:18.130Z,11.80
2017-04-13T06:08:16.555Z,11.80
2017-04-13T06:09:15.059Z,11.90
2017-04-13T06:10:13.414Z,11.90
2017-04-13T06:11:12.049Z,11.90
2017-04-13T06:12:10.463Z,11.90
2017-04-13T06:13:08.941Z,11.90
2017-04-13T06:14:07.391Z,11.90
2017-04-13T06:15:06.535Z,11.90
2017-04-13T06:16:04.950Z,11.90
2017-04-13T06:17:04.116Z,11.90
2017-04-13T06:18:02.532Z,12.00
2017-04-13T06:19:00.935Z,12.00
2017-04-13T06:19:59.332Z,12.00
2017-04-13T06:20:57.743Z,12.00
2017-04-13T06:21:56.183Z,12.00
2017-04-13T06:22:54.602Z,12.00
2017-04-13T06:23:53.049Z,12.10
2017-04-13T06:24:51.453Z,12.00
2017-04-13T06:25:49.798Z,12.00
2017-04-13T06:26:48.384Z,12.10
2017-04-13T06:27:46.826Z,12.00
2017-04-13T06:28:45.286Z,12.00
2017-04-13T06:29:43.802Z,12.00
2017-04-13T06:30:42.255Z,12.00
2017-04-13T06:31:41.054Z,12.00
2017-04-13T06:32:39.486Z,12.00
2017-04-13T06:33:37.953Z,12.00
2017-04-13T06:34:36.344Z,12.00
2017-04-13T06:35:34.756Z,12.00
2017-04-13T06:36:33.443Z,12.00
2017-04-13T06:37:32.039Z,12.00
2017-04-13T06:38:30.462Z,12.00
2017-04-13T06:39:29.670Z,12.00
2017-04-13T06:40:28.533Z,12.00
2017-04-13T06:41:27.686Z,12.00
2017-04-13T06:42:26.137Z,12.10
2017-04-13T06:43:24.550Z,12.10
2017-04-13T06:44:22.919Z,12.10
2017-04-13T06:45:21.279Z,12.10
2017-04-13T06:46:19.618Z,12.10
2017-04-13T06:47:17.946Z,12.10
2017-04-13T06:48:16.247Z,12.10
2017-04-13T06:49:14.599Z,12.10
2017-04-13T06:50:13.761Z,12.10
2017-04-13T06:51:12.373Z,12.10
2017-04-13T06:52:10.749Z,12.10
2017-04-13T06:53:09.053Z,12.10
2017-04-13T06:54:07.586Z,12.20
2017-04-13T06:55:05.922Z,12.20
2017-04-13T06:56:04.217Z,12.20
2017-04-13T06:57:02.535Z,12.20
2017-04-13T06:58:01.663Z,12.20
2017-04-13T06:59:00.043Z,12.20
2017-04-13T06:59:58.475Z,12.20
2017-04-13T07:00:56.869Z,12.20
2017-04-13T07:01:55.210Z,12.20
2017-04-13T07:02:55.810Z,12.30
2017-04-13T07:03:54.252Z,12.30
2017-04-13T07:04:53.062Z,12.30
2017-04-13T07:05:52.746Z,12.30
2017-04-13T07:06:51.341Z,12.40
2017-04-13T07:07:50.314Z,12.40
2017-04-13T07:08:48.714Z,12.40
2017-04-13T07:09:47.144Z,12.50
2017-04-13T07:10:45.935Z,12.50
2017-04-13T07:11:44.309Z,12.50
2017-04-13T07:12:42.662Z,12.60
2017-04-13T07:13:40.998Z,12.60
2017-04-13T07:14:39.362Z,12.60
2017-04-13T07:15:37.760Z,12.70
2017-04-13T07:16:36.205Z,12.60
2017-04-13T07:17:35.273Z,12.70
2017-04-13T07:18:34.782Z,12.70
2017-04-13T07:19:33.151Z,12.70
2017-04-13T07:20:32.182Z,12.70
2017-04-13T07:21:30.957Z,12.70
2017-04-13T07:22:29.334Z,12.80
2017-04-13T07:23:27.683Z,12.80
2017-04-13T07:24:26.070Z,12.80
2017-04-13T07:25:24.421Z,12.80
2017-04-13T07:26:22.799Z,12.90
2017-04-13T07:27:21.205Z,12.90
2017-04-13T07:28:19.562Z,12.90
2017-04-13T07:29:17.925Z,13.00
2017-04-13T07:30:17.081Z,13.00
2017-04-13T07:31:15.473Z,13.10
2017-04-13T07:32:14.625Z,13.10
2017-04-13T07:33:13.673Z,13.10
2017-04-13T07:34:12.040Z,13.10
2017-04-13T07:35:10.401Z,13.20
2017-04-13T07:36:08.767Z,13.20
2017-04-13T07:37:07.142Z,13.20
2017-04-13T07:38:05.599Z,13.20
2017-04-13T07:39:04.402Z,13.30
2017-04-13T07:40:02.938Z,13.30
2017-04-13T07:41:01.304Z,13.30
2017-04-13T07:42:00.423Z,13.30
2017-04-13T07:42:58.781Z,13.30
2017-04-13T07:43:57.250Z,13.40
2017-04-13T07:44:56.366Z,13.30
2017-04-13T07:45:55.002Z,13.30
2017-04-13T07:46:53.358Z,13.40
2017-04-13T07:47:51.722Z,13.40
2017-04-13T07:48:50.773Z,13.40
2017-04-13T07:49:49.106Z,13.40
2017-04-13T07:50:47.584Z,13.40
2017-04-13T07:51:45.963Z,13.40
2017-04-13T07:52:44.378Z,13.40
2017-04-13T07:53:42.777Z,13.40
2017-04-13T07:54:41.133Z,13.40
2017-04-13T07:55:39.541Z,13.40
2017-04-13T07:56:38.030Z,13.30
2017-04-13T07:57:36.458Z,13.30
2017-04-13T07:58:34.901Z,13.30
2017-04-13T07:59:33.281Z,13.30
2017-04-13T08:00:31.634Z,13.20
2017-04-13T08:01:30.074Z,13.20
2017-04-13T08:02:28.417Z,13.20
2017-04-13T08:03:26.742Z,13.20
2017-04-13T08:04:25.817Z,13.10
2017-04-13T08:05:24.481Z,13.10
2017-04-13T08:06:23.597Z,13.10
2017-04-13T08:07:22.001Z,13.10
2017-04-13T08:08:22.257Z,13.10
2017-04-13T08:09:21.895Z,13.10
2017-04-13T08:10:21.143Z,13.00
2017-04-13T08:11:20.558Z,13.00
2017-04-13T08:12:19.522Z,13.00
2017-04-13T08:13:19.147Z,13.00
2017-04-13T08:14:17.608Z,12.90
2017-04-13T08:15:15.917Z,12.90
2017-04-13T08:16:14.274Z,12.90
2017-04-13T08:17:12.661Z,12.90
2017-04-13T08:18:11.014Z,12.90
2017-04-13T08:19:09.367Z,12.90
2017-04-13T08:20:25.068Z,12.80
2017-04-13T08:21:30.479Z,12.80
2017-04-13T08:22:28.972Z,12.80
2017-04-13T08:23:27.333Z,12.80
2017-04-13T08:24:25.732Z,12.80
2017-04-13T08:25:24.158Z,12.70
2017-04-13T08:26:22.585Z,12.70
2017-04-13T08:27:20.986Z,12.70
2017-04-13T08:28:19.450Z,12.70
2017-04-13T08:29:17.808Z,12.70
2017-04-13T08:30:16.192Z,12.70
2017-04-13T08:31:14.748Z,12.70
2017-04-13T08:32:14.955Z,12.70
2017-04-13T08:33:13.400Z,12.70
2017-04-13T08:34:11.834Z,12.70
2017-04-13T08:35:10.223Z,12.60
2017-04-13T08:36:09.462Z,12.60
2017-04-13T08:37:08.132Z,12.60
2017-04-13T08:38:06.583Z,12.60
2017-04-13T08:39:05.062Z,12.50
2017-04-13T08:40:03.497Z,12.50
2017-04-13T08:41:04.074Z,12.50
2017-04-13T08:42:02.536Z,12.50
2017-04-13T08:43:01.654Z,12.50
2017-04-13T08:44:00.135Z,12.50
2017-04-13T08:44:58.567Z,12.50
2017-04-13T08:45:57.222Z,12.60
2017-04-13T08:46:55.619Z,12.60
2017-04-13T08:47:54.714Z,12.60
2017-04-13T08:48:53.159Z,12.60
2017-04-13T08:49:51.662Z,12.60
2017-04-13T08:50:50.486Z,12.70
2017-04-13T08:51:48.859Z,12.80
2017-04-13T08:52:47.829Z,12.90
2017-04-13T08:53:46.222Z,13.00
2017-04-13T08:54:44.641Z,13.00
2017-04-13T08:55:43.163Z,13.10
2017-04-13T08:56:41.600Z,13.10
2017-04-13T08:57:40.043Z,13.20
2017-04-13T08:58:38.385Z,13.20
2017-04-13T08:59:36.783Z,13.20
2017-04-13T09:00:35.215Z,13.20
2017-04-13T09:01:33.602Z,13.20
2017-04-13T09:02:32.183Z,13.20
2017-04-13T09:08:30.963Z,13.10
2017-04-13T09:09:29.361Z,12.90
2017-04-13T09:10:27.803Z,12.90
2017-04-13T09:11:26.212Z,12.80
2017-04-13T09:12:24.619Z,12.80
2017-04-13T09:13:26.390Z,12.80
2017-04-13T09:14:24.762Z,12.80
2017-04-13T09:15:23.221Z,12.80
2017-04-13T09:16:21.678Z,12.80
2017-04-13T09:17:20.054Z,12.80
2017-04-13T09:18:18.414Z,12.80
2017-04-13T09:19:16.801Z,12.80
2017-04-13T09:20:15.246Z,12.80
2017-04-13T09:21:13.707Z,12.70
2017-04-13T09:22:12.455Z,12.80
2017-04-13T09:23:11.744Z,12.70
2017-04-13T09:24:10.142Z,12.70
2017-04-13T09:25:08.751Z,12.70
2017-04-13T09:26:07.862Z,12.70
2017-04-13T09:27:06.223Z,12.70
2017-04-13T09:28:04.620Z,12.70
2017-04-13T09:29:03.459Z,12.70
2017-04-13T09:30:01.841Z,12.70
2017-04-13T09:31:00.187Z,12.70
2017-04-13T09:31:58.646Z,12.70
2017-04-13T09:32:57.605Z,12.70
2017-04-13T09:33:55.990Z,12.80
2017-04-13T09:34:57.715Z,12.90
2017-04-13T09:35:57.108Z,13.10
2017-04-13T09:36:56.362Z,13.30
2017-04-13T09:37:54.730Z,13.50
2017-04-13T09:38:53.707Z,13.70
2017-04-13T09:39:52.138Z,13.90
2017-04-13T09:40:50.547Z,14.00
2017-04-13T09:41:48.961Z,14.10
2017-04-13T09:42:47.341Z,14.20
2017-04-13T09:43:45.786Z,14.20
2017-04-13T09:44:44.165Z,14.10
2017-04-13T09:45:42.580Z,14.10
2017-04-13T09:46:41.005Z,14.10
2017-04-13T09:47:39.375Z,14.10
2017-04-13T09:48:37.729Z,14.00
2017-04-13T09:49:36.242Z,14.00
2017-04-13T09:50:34.594Z,14.00
2017-04-13T09:51:33.023Z,14.00
2017-04-13T09:52:31.395Z,14.00
2017-04-13T09:53:29.782Z,13.90
2017-04-13T09:54:28.930Z,13.90
2017-04-13T09:55:27.345Z,13.90
2017-04-13T09:56:26.457Z,13.90
2017-04-13T09:57:24.088Z,13.90
2017-04-13T09:58:22.441Z,13.80
2017-04-13T09:59:20.782Z,13.80
2017-04-13T10:00:19.159Z,13.90
2017-04-13T10:01:17.617Z,13.90
2017-04-13T10:02:16.057Z,14.00
2017-04-13T10:03:14.438Z,14.00
2017-04-13T10:04:12.819Z,14.10
2017-04-13T10:05:11.342Z,14.10
2017-04-13T10:06:16.275Z,14.20
2017-04-13T10:07:14.906Z,14.20
2017-04-13T10:08:13.378Z,14.30
2017-04-13T10:09:11.886Z,14.30
2017-04-13T10:10:09.526Z,14.30
2017-04-13T10:11:08.666Z,14.40
2017-04-13T10:12:07.062Z,14.40
2017-04-13T10:13:05.537Z,14.40
2017-04-13T10:14:03.943Z,14.40
2017-04-13T10:15:02.334Z,14.50
2017-04-13T10:16:02.235Z,14.50
2017-04-13T10:17:00.606Z,14.50
2017-04-13T10:17:59.025Z,14.50
2017-04-13T10:18:58.624Z,14.50
2017-04-13T10:19:57.251Z,14.50
2017-04-13T10:20:55.618Z,14.60
2017-04-13T10:21:53.978Z,14.60
2017-04-13T10:22:53.062Z,14.70
2017-04-13T10:23:51.468Z,14.80
2017-04-13T10:24:49.858Z,14.90
2017-04-13T10:25:48.246Z,15.00
2017-04-13T10:26:46.646Z,15.10
2017-04-13T10:27:45.949Z,15.10
2017-04-13T10:28:44.366Z,15.20
2017-04-13T10:29:42.786Z,15.30
2017-04-13T10:30:41.189Z,15.30
2017-04-13T10:31:39.595Z,15.30
2017-04-13T10:32:38.114Z,15.30
2017-04-13T10:33:36.459Z,15.30
2017-04-13T10:34:34.862Z,15.40
2017-04-13T10:35:36.602Z,15.40
2017-04-13T10:36:34.978Z,15.40
2017-04-13T10:37:33.410Z,15.40
2017-04-13T10:38:31.802Z,15.40
2017-04-13T10:39:30.188Z,15.40
2017-04-13T10:40:34.569Z,15.40
2017-04-13T10:41:32.927Z,15.40
2017-04-13T10:42:31.686Z,15.40
2017-04-13T10:43:30.034Z,15.50
2017-04-13T10:44:29.129Z,15.50
2017-04-13T10:45:27.842Z,15.40
2017-04-13T10:46:27.166Z,15.40
2017-04-13T10:47:25.527Z,15.40
2017-04-13T10:48:24.683Z,15.50
2017-04-13T10:49:23.048Z,15.50
2017-04-13T10:50:21.543Z,15.60
2017-04-13T10:51:20.098Z,15.70
2017-04-13T10:52:18.642Z,15.80
2017-04-13T10:53:17.148Z,15.90
2017-04-13T10:54:15.564Z,16.00
2017-04-13T10:55:13.950Z,16.10
2017-04-13T10:56:13.991Z,16.10
2017-04-13T10:57:13.136Z,16.10
2017-04-13T10:58:11.494Z,16.10
2017-04-13T10:59:09.868Z,16.10
2017-04-13T11:00:08.274Z,16.10
2017-04-13T11:01:06.626Z,16.00
2017-04-13T11:02:04.978Z,16.00
2017-04-13T11:03:03.409Z,15.90
2017-04-13T11:04:01.827Z,15.90
2017-04-13T11:05:00.187Z,15.80
2017-04-13T11:05:59.407Z,15.70
2017-04-13T11:06:57.961Z,15.70
2017-04-13T11:07:56.339Z,15.60
2017-04-13T11:08:54.759Z,15.60
2017-04-13T11:09:53.156Z,15.50
2017-04-13T11:10:51.529Z,15.50
2017-04-13T11:11:49.906Z,15.50
2017-04-13T11:12:48.219Z,15.50
2017-04-13T11:13:46.590Z,15.60
2017-04-13T11:14:45.669Z,15.70
2017-04-13T11:15:44.256Z,15.70
2017-04-13T11:16:43.152Z,15.70
2017-04-13T11:17:41.742Z,15.70
2017-04-13T11:18:40.172Z,15.70
2017-04-13T11:19:38.618Z,15.60
2017-04-13T11:20:36.955Z,15.60
2017-04-13T11:21:35.464Z,15.60
2017-04-13T11:22:33.815Z,15.60
2017-04-13T11:23:32.230Z,15.60
2017-04-13T11:24:30.715Z,15.70
2017-04-13T11:25:29.091Z,15.70
2017-04-13T11:26:27.463Z,15.80
2017-04-13T11:27:25.927Z,15.90
2017-04-13T11:28:24.314Z,16.00
2017-04-13T11:29:23.280Z,16.10
2017-04-13T11:30:22.124Z,16.20
2017-04-13T11:31:20.446Z,16.30
2017-04-13T11:32:18.750Z,16.40
2017-04-13T11:33:17.158Z,16.50
2017-04-13T11:34:15.758Z,16.50
2017-04-13T11:35:14.635Z,16.60
2017-04-13T11:36:13.243Z,16.70
2017-04-13T11:37:11.613Z,16.70
2017-04-13T11:38:20.226Z,16.70
2017-04-13T11:39:18.557Z,16.80
2017-04-13T11:40:18.005Z,16.80
2017-04-13T11:41:16.369Z,16.80
2017-04-13T11:42:14.767Z,16.80
2017-04-13T11:43:13.158Z,16.80
2017-04-13T11:44:11.531Z,16.70
2017-04-13T11:45:10.871Z,16.70
2017-04-13T11:46:09.262Z,16.70
2017-04-13T11:47:08.526Z,16.60
2017-04-13T11:48:06.858Z,16.50
2017-04-13T11:49:05.202Z,16.50
2017-04-13T11:50:03.622Z,16.40
2017-04-13T11:51:02.001Z,16.30
2017-04-13T11:52:01.174Z,16.20
2017-04-13T11:52:59.555Z,16.20
2017-04-13T11:53:57.958Z,16.10
2017-04-13T11:54:56.247Z,16.10
2017-04-13T11:55:54.582Z,16.00
2017-04-13T11:56:52.944Z,15.90
2017-04-13T11:57:51.289Z,15.90
2017-04-13T11:58:49.685Z,15.90
2017-04-13T11:59:48.145Z,15.90
2017-04-13T12:00:46.466Z,16.00
2017-04-13T12:01:44.828Z,16.00
2017-04-13T12:02:43.229Z,16.00
2017-04-13T12:03:42.366Z,16.10
2017-04-13T12:04:40.726Z,16.10
2017-04-13T12:05:39.090Z,16.20
2017-04-13T12:06:37.866Z,16.20
2017-04-13T12:07:36.266Z,16.20
2017-04-13T12:08:34.662Z,16.20
2017-04-13T12:09:33.033Z,16.20
2017-04-13T12:10:31.406Z,16.30
2017-04-13T12:11:29.737Z,16.30
2017-04-13T12:12:28.171Z,16.30
2017-04-13T12:13:26.543Z,16.30
2017-04-13T12:14:24.902Z,16.40
2017-04-13T12:15:24.053Z,16.40
2017-04-13T12:16:22.437Z,16.40
2017-04-13T12:17:21.500Z,16.30
2017-04-13T12:18:19.831Z,16.30
2017-04-13T12:19:18.974Z,16.30
2017-04-13T12:20:18.073Z,16.30
2017-04-13T12:21:16.423Z,16.30
2017-04-13T12:22:14.821Z,16.40
2017-04-13T12:23:13.239Z,16.40
2017-04-13T12:24:11.666Z,16.40
2017-04-13T12:25:10.058Z,16.40
2017-04-13T12:26:08.402Z,16.50
2017-04-13T12:27:06.880Z,16.50
2017-04-13T12:28:06.062Z,16.50
2017-04-13T12:29:04.638Z,16.50
2017-04-13T12:30:03.145Z,16.50
2017-04-13T12:31:01.702Z,16.50
2017-04-13T12:32:00.098Z,16.50
2017-04-13T12:32:58.443Z,16.50
2017-04-13T12:33:57.080Z,16.50
2017-04-13T12:34:55.774Z,16.50
2017-04-13T12:35:54.330Z,16.50
2017-04-13T12:36:53.096Z,16.40
2017-04-13T12:37:51.711Z,16.40
2017-04-13T12:38:50.062Z,16.40
2017-04-13T12:39:49.532Z,16.40